sensor_id;sensor_type;location;lat;lon;timestamp;P1;durP1;ratioP1;P2;durP2;ratioP2
30243;SDS011;64022;53.652;9.792;2023-04-01T00:02:05;31.17;;;18.07;;
30243;SDS011;64022;53.652;9.792;2023-04-01T00:04:31;29.83;;;18.83;;
30243;SDS011;64022;53.652;9.792;2023-04-01T00:06:57;33.17;;;18.53;;
30243;SDS011;64022;53.652;9.792;2023-04-01T00:09:22;33.40;;;18.70;;
30243;SDS011;64022;53.652;9.792;2023-04-01T00:11:48;36.70;;;19.37;;
30243;SDS011;64022;53.652;9.792;2023-04-01T00:14:14;31.53;;;18.23;;
30243;SDS011;64022;53.652;9.792;2023-04-01T00:16:40;31.43;;;17.70;;
30243;SDS011;64022;53.652;9.792;2023-04-01T00:19:05;30.87;;;19.30;;
30243;SDS011;64022;53.652;9.792;2023-04-01T00:21:31;32.87;;;18.83;;
30243;SDS011;64022;53.652;9.792;2023-04-01T00:23:57;32.73;;;19.33;;
30243;SDS011;64022;53.652;9.792;2023-04-01T00:26:23;31.83;;;18.63;;
30243;SDS011;64022;53.652;9.792;2023-04-01T00:28:49;31.88;;;17.83;;
30243;SDS011;64022;53.652;9.792;2023-04-01T00:31:15;32.90;;;18.77;;
30243;SDS011;64022;53.652;9.792;2023-04-01T00:33:40;34.73;;;18.87;;
30243;SDS011;64022;53.652;9.792;2023-04-01T00:36:16;34.17;;;19.40;;
30243;SDS011;64022;53.652;9.792;2023-04-01T00:38:44;37.03;;;19.60;;
30243;SDS011;64022;53.652;9.792;2023-04-01T00:41:11;33.38;;;18.02;;
30243;SDS011;64022;53.652;9.792;2023-04-01T00:43:39;34.13;;;18.75;;
30243;SDS011;64022;53.652;9.792;2023-04-01T00:46:06;33.10;;;19.40;;
30243;SDS011;64022;53.652;9.792;2023-04-01T00:48:36;36.27;;;18.90;;
30243;SDS011;64022;53.652;9.792;2023-04-01T00:51:11;35.38;;;20.48;;
30243;SDS011;64022;53.652;9.792;2023-04-01T00:53:43;32.88;;;18.80;;
30243;SDS011;64022;53.652;9.792;2023-04-01T00:56:14;35.55;;;18.33;;
30243;SDS011;64022;53.652;9.792;2023-04-01T00:58:44;31.75;;;19.20;;
30243;SDS011;64022;53.652;9.792;2023-04-01T01:01:13;33.83;;;19.48;;
30243;SDS011;64022;53.652;9.792;2023-04-01T01:03:40;31.33;;;17.58;;
30243;SDS011;64022;53.652;9.792;2023-04-01T01:08:57;30.85;;;18.75;;
30243;SDS011;64022;53.652;9.792;2023-04-01T01:14:43;29.27;;;17.43;;
30243;SDS011;64022;53.652;9.792;2023-04-01T01:17:27;30.00;;;18.15;;
30243;SDS011;64022;53.652;9.792;2023-04-01T01:25:28;29.05;;;17.73;;
30243;SDS011;64022;53.652;9.792;2023-04-01T01:28:22;31.73;;;18.05;;
30243;SDS011;64022;53.652;9.792;2023-04-01T01:30:57;29.67;;;17.23;;
30243;SDS011;64022;53.652;9.792;2023-04-01T01:36:25;32.20;;;17.35;;
30243;SDS011;64022;53.652;9.792;2023-04-01T01:38:56;30.08;;;17.27;;
30243;SDS011;64022;53.652;9.792;2023-04-01T01:41:23;30.10;;;17.88;;
30243;SDS011;64022;53.652;9.792;2023-04-01T01:43:51;30.35;;;17.48;;
30243;SDS011;64022;53.652;9.792;2023-04-01T01:46:22;30.73;;;18.80;;
30243;SDS011;64022;53.652;9.792;2023-04-01T01:48:49;32.65;;;18.58;;
30243;SDS011;64022;53.652;9.792;2023-04-01T01:51:17;31.45;;;18.30;;
30243;SDS011;64022;53.652;9.792;2023-04-01T01:53:45;28.67;;;17.33;;
30243;SDS011;64022;53.652;9.792;2023-04-01T01:56:11;30.60;;;17.67;;
30243;SDS011;64022;53.652;9.792;2023-04-01T01:58:51;30.02;;;17.88;;
30243;SDS011;64022;53.652;9.792;2023-04-01T02:01:22;29.63;;;17.83;;
30243;SDS011;64022;53.652;9.792;2023-04-01T02:03:50;31.38;;;17.17;;
30243;SDS011;64022;53.652;9.792;2023-04-01T02:06:18;26.77;;;17.05;;
30243;SDS011;64022;53.652;9.792;2023-04-01T02:08:56;27.23;;;16.40;;
30243;SDS011;64022;53.652;9.792;2023-04-01T02:11:27;29.85;;;15.65;;
30243;SDS011;64022;53.652;9.792;2023-04-01T02:16:35;30.57;;;17.03;;
30243;SDS011;64022;53.652;9.792;2023-04-01T02:19:05;23.80;;;14.55;;
30243;SDS011;64022;53.652;9.792;2023-04-01T02:21:34;26.80;;;16.45;;
30243;SDS011;64022;53.652;9.792;2023-04-01T02:24:02;28.35;;;16.30;;
30243;SDS011;64022;53.652;9.792;2023-04-01T02:26:32;28.17;;;16.30;;
30243;SDS011;64022;53.652;9.792;2023-04-01T02:28:59;30.27;;;15.98;;
30243;SDS011;64022;53.652;9.792;2023-04-01T02:31:28;25.63;;;15.65;;
30243;SDS011;64022;53.652;9.792;2023-04-01T02:33:55;28.25;;;15.73;;
30243;SDS011;64022;53.652;9.792;2023-04-01T02:36:21;27.87;;;17.00;;
30243;SDS011;64022;53.652;9.792;2023-04-01T02:38:46;25.60;;;15.53;;
30243;SDS011;64022;53.652;9.792;2023-04-01T02:41:14;26.63;;;15.70;;
30243;SDS011;64022;53.652;9.792;2023-04-01T02:43:40;28.47;;;16.17;;
30243;SDS011;64022;53.652;9.792;2023-04-01T02:46:05;26.63;;;15.37;;
30243;SDS011;64022;53.652;9.792;2023-04-01T02:48:31;24.83;;;14.47;;
30243;SDS011;64022;53.652;9.792;2023-04-01T02:50:56;29.87;;;15.93;;
30243;SDS011;64022;53.652;9.792;2023-04-01T02:53:22;26.77;;;15.30;;
30243;SDS011;64022;53.652;9.792;2023-04-01T02:55:48;27.40;;;15.03;;
30243;SDS011;64022;53.652;9.792;2023-04-01T02:58:15;24.13;;;14.25;;
30243;SDS011;64022;53.652;9.792;2023-04-01T03:00:41;26.77;;;15.23;;
30243;SDS011;64022;53.652;9.792;2023-04-01T03:03:07;24.67;;;15.03;;
30243;SDS011;64022;53.652;9.792;2023-04-01T03:05:33;24.98;;;14.77;;
30243;SDS011;64022;53.652;9.792;2023-04-01T03:07:59;26.23;;;15.17;;
30243;SDS011;64022;53.652;9.792;2023-04-01T03:10:25;27.67;;;15.63;;
30243;SDS011;64022;53.652;9.792;2023-04-01T03:12:51;24.77;;;15.10;;
30243;SDS011;64022;53.652;9.792;2023-04-01T03:15:16;25.20;;;14.70;;
30243;SDS011;64022;53.652;9.792;2023-04-01T03:17:42;22.57;;;13.97;;
30243;SDS011;64022;53.652;9.792;2023-04-01T03:20:08;22.90;;;13.50;;
30243;SDS011;64022;53.652;9.792;2023-04-01T03:22:35;25.02;;;14.02;;
30243;SDS011;64022;53.652;9.792;2023-04-01T03:25:02;25.23;;;13.18;;
30243;SDS011;64022;53.652;9.792;2023-04-01T03:27:28;24.42;;;14.43;;
30243;SDS011;64022;53.652;9.792;2023-04-01T03:29:54;22.23;;;13.43;;
30243;SDS011;64022;53.652;9.792;2023-04-01T03:32:19;23.07;;;13.70;;
30243;SDS011;64022;53.652;9.792;2023-04-01T03:34:45;25.30;;;14.30;;
30243;SDS011;64022;53.652;9.792;2023-04-01T03:37:10;25.73;;;14.20;;
30243;SDS011;64022;53.652;9.792;2023-04-01T03:39:36;22.60;;;13.67;;
30243;SDS011;64022;53.652;9.792;2023-04-01T03:42:01;24.43;;;14.00;;
30243;SDS011;64022;53.652;9.792;2023-04-01T03:44:31;24.00;;;13.37;;
30243;SDS011;64022;53.652;9.792;2023-04-01T03:46:57;22.50;;;14.00;;
30243;SDS011;64022;53.652;9.792;2023-04-01T03:49:22;23.63;;;14.07;;
30243;SDS011;64022;53.652;9.792;2023-04-01T03:51:48;24.00;;;13.80;;
30243;SDS011;64022;53.652;9.792;2023-04-01T03:54:13;25.13;;;13.37;;
30243;SDS011;64022;53.652;9.792;2023-04-01T03:56:39;22.10;;;13.37;;
30243;SDS011;64022;53.652;9.792;2023-04-01T03:59:05;22.77;;;13.90;;
30243;SDS011;64022;53.652;9.792;2023-04-01T04:03:57;22.52;;;13.52;;
30243;SDS011;64022;53.652;9.792;2023-04-01T04:06:24;24.80;;;13.57;;
30243;SDS011;64022;53.652;9.792;2023-04-01T04:08:50;22.40;;;13.00;;
30243;SDS011;64022;53.652;9.792;2023-04-01T04:11:16;22.53;;;12.53;;
30243;SDS011;64022;53.652;9.792;2023-04-01T04:13:42;22.98;;;13.35;;
30243;SDS011;64022;53.652;9.792;2023-04-01T04:16:08;20.80;;;12.32;;
30243;SDS011;64022;53.652;9.792;2023-04-01T04:18:36;21.88;;;13.50;;
30243;SDS011;64022;53.652;9.792;2023-04-01T04:21:02;22.00;;;13.07;;
30243;SDS011;64022;53.652;9.792;2023-04-01T04:23:28;23.85;;;12.80;;
30243;SDS011;64022;53.652;9.792;2023-04-01T04:30:47;21.63;;;12.00;;
30243;SDS011;64022;53.652;9.792;2023-04-01T04:33:13;18.77;;;11.93;;
30243;SDS011;64022;53.652;9.792;2023-04-01T04:35:38;22.37;;;12.80;;
30243;SDS011;64022;53.652;9.792;2023-04-01T04:38:04;20.67;;;12.23;;
30243;SDS011;64022;53.652;9.792;2023-04-01T04:40:29;20.70;;;12.33;;
30243;SDS011;64022;53.652;9.792;2023-04-01T04:42:55;22.57;;;13.00;;
30243;SDS011;64022;53.652;9.792;2023-04-01T04:45:20;19.00;;;12.07;;
30243;SDS011;64022;53.652;9.792;2023-04-01T04:47:46;19.47;;;12.27;;
30243;SDS011;64022;53.652;9.792;2023-04-01T04:50:11;20.90;;;12.33;;
30243;SDS011;64022;53.652;9.792;2023-04-01T04:52:37;20.38;;;11.77;;
30243;SDS011;64022;53.652;9.792;2023-04-01T04:55:03;20.43;;;12.60;;
30243;SDS011;64022;53.652;9.792;2023-04-01T04:57:29;18.97;;;11.33;;
30243;SDS011;64022;53.652;9.792;2023-04-01T04:59:55;19.83;;;12.23;;
30243;SDS011;64022;53.652;9.792;2023-04-01T05:02:20;18.93;;;12.33;;
30243;SDS011;64022;53.652;9.792;2023-04-01T05:04:46;17.60;;;11.60;;
30243;SDS011;64022;53.652;9.792;2023-04-01T05:07:11;17.57;;;11.03;;
30243;SDS011;64022;53.652;9.792;2023-04-01T05:09:37;20.63;;;11.47;;
30243;SDS011;64022;53.652;9.792;2023-04-01T05:12:03;18.33;;;11.20;;
30243;SDS011;64022;53.652;9.792;2023-04-01T05:14:28;18.77;;;11.67;;
30243;SDS011;64022;53.652;9.792;2023-04-01T05:16:54;19.47;;;11.53;;
30243;SDS011;64022;53.652;9.792;2023-04-01T05:19:19;18.07;;;11.73;;
30243;SDS011;64022;53.652;9.792;2023-04-01T05:21:45;17.90;;;11.20;;
30243;SDS011;64022;53.652;9.792;2023-04-01T05:24:11;20.43;;;11.80;;
30243;SDS011;64022;53.652;9.792;2023-04-01T05:26:36;19.27;;;10.57;;
30243;SDS011;64022;53.652;9.792;2023-04-01T05:29:03;19.40;;;11.73;;
30243;SDS011;64022;53.652;9.792;2023-04-01T05:31:29;17.95;;;10.88;;
30243;SDS011;64022;53.652;9.792;2023-04-01T05:33:54;17.00;;;10.60;;
30243;SDS011;64022;53.652;9.792;2023-04-01T05:36:20;17.25;;;10.23;;
30243;SDS011;64022;53.652;9.792;2023-04-01T05:38:46;17.67;;;11.23;;
30243;SDS011;64022;53.652;9.792;2023-04-01T05:41:12;16.60;;;10.60;;
30243;SDS011;64022;53.652;9.792;2023-04-01T05:46:05;17.38;;;9.93;;
30243;SDS011;64022;53.652;9.792;2023-04-01T05:48:30;16.80;;;10.97;;
30243;SDS011;64022;53.652;9.792;2023-04-01T05:50:57;15.88;;;10.38;;
30243;SDS011;64022;53.652;9.792;2023-04-01T05:53:23;18.37;;;11.00;;
30243;SDS011;64022;53.652;9.792;2023-04-01T05:55:48;16.17;;;10.20;;
30243;SDS011;64022;53.652;9.792;2023-04-01T05:58:15;18.40;;;10.25;;
30243;SDS011;64022;53.652;9.792;2023-04-01T06:00:40;19.53;;;10.70;;
30243;SDS011;64022;53.652;9.792;2023-04-01T06:03:06;15.23;;;10.30;;
30243;SDS011;64022;53.652;9.792;2023-04-01T06:05:37;16.43;;;10.13;;
30243;SDS011;64022;53.652;9.792;2023-04-01T06:08:11;15.10;;;9.60;;
30243;SDS011;64022;53.652;9.792;2023-04-01T06:11:28;17.70;;;10.57;;
30243;SDS011;64022;53.652;9.792;2023-04-01T06:16:39;17.48;;;9.93;;
30243;SDS011;64022;53.652;9.792;2023-04-01T06:19:31;17.42;;;9.45;;
30243;SDS011;64022;53.652;9.792;2023-04-01T06:25:18;16.73;;;9.88;;
30243;SDS011;64022;53.652;9.792;2023-04-01T06:43:50;16.67;;;9.88;;
30243;SDS011;64022;53.652;9.792;2023-04-01T06:46:40;15.57;;;9.25;;
30243;SDS011;64022;53.652;9.792;2023-04-01T06:54:55;13.85;;;8.13;;
30243;SDS011;64022;53.652;9.792;2023-04-01T06:57:27;14.43;;;8.90;;
30243;SDS011;64022;53.652;9.792;2023-04-01T07:00:05;12.35;;;8.35;;
30243;SDS011;64022;53.652;9.792;2023-04-01T07:02:54;11.98;;;7.32;;
30243;SDS011;64022;53.652;9.792;2023-04-01T07:05:34;29.95;;;12.35;;
30243;SDS011;64022;53.652;9.792;2023-04-01T07:08:08;27.23;;;11.48;;
30243;SDS011;64022;53.652;9.792;2023-04-01T07:10:50;26.02;;;10.07;;
30243;SDS011;64022;53.652;9.792;2023-04-01T07:13:36;54.08;;;14.88;;
30243;SDS011;64022;53.652;9.792;2023-04-01T07:16:19;48.15;;;14.65;;
30243;SDS011;64022;53.652;9.792;2023-04-01T07:21:47;50.17;;;14.40;;
30243;SDS011;64022;53.652;9.792;2023-04-01T07:24:32;41.92;;;14.63;;
30243;SDS011;64022;53.652;9.792;2023-04-01T07:27:05;38.47;;;11.70;;
30243;SDS011;64022;53.652;9.792;2023-04-01T07:29:35;49.05;;;12.55;;
30243;SDS011;64022;53.652;9.792;2023-04-01T07:32:14;56.80;;;14.93;;
30243;SDS011;64022;53.652;9.792;2023-04-01T07:35:10;54.85;;;14.50;;
30243;SDS011;64022;53.652;9.792;2023-04-01T07:40:39;66.43;;;15.32;;
30243;SDS011;64022;53.652;9.792;2023-04-01T07:43:32;62.83;;;16.92;;
30243;SDS011;64022;53.652;9.792;2023-04-01T07:49:22;53.00;;;13.52;;
30243;SDS011;64022;53.652;9.792;2023-04-01T07:54:42;46.63;;;14.27;;
30243;SDS011;64022;53.652;9.792;2023-04-01T07:57:15;48.72;;;13.43;;
30243;SDS011;64022;53.652;9.792;2023-04-01T08:00:13;46.65;;;13.13;;
30243;SDS011;64022;53.652;9.792;2023-04-01T08:03:02;51.58;;;12.50;;
30243;SDS011;64022;53.652;9.792;2023-04-01T08:05:44;41.80;;;11.75;;
30243;SDS011;64022;53.652;9.792;2023-04-01T08:10:54;40.30;;;10.65;;
30243;SDS011;64022;53.652;9.792;2023-04-01T08:13:47;37.17;;;11.00;;
30243;SDS011;64022;53.652;9.792;2023-04-01T08:16:31;42.83;;;12.10;;
30243;SDS011;64022;53.652;9.792;2023-04-01T08:22:26;33.25;;;10.60;;
30243;SDS011;64022;53.652;9.792;2023-04-01T08:24:55;33.75;;;10.65;;
30243;SDS011;64022;53.652;9.792;2023-04-01T08:27:41;33.53;;;10.38;;
30243;SDS011;64022;53.652;9.792;2023-04-01T08:30:16;33.60;;;9.48;;
30243;SDS011;64022;53.652;9.792;2023-04-01T08:32:50;31.63;;;10.48;;
30243;SDS011;64022;53.652;9.792;2023-04-01T08:35:30;36.88;;;10.77;;
30243;SDS011;64022;53.652;9.792;2023-04-01T08:38:06;30.98;;;10.55;;
30243;SDS011;64022;53.652;9.792;2023-04-01T08:43:48;24.52;;;8.43;;
30243;SDS011;64022;53.652;9.792;2023-04-01T08:55:22;27.08;;;8.88;;
30243;SDS011;64022;53.652;9.792;2023-04-01T09:11:27;16.50;;;6.50;;
30243;SDS011;64022;53.652;9.792;2023-04-01T09:34:21;13.18;;;4.60;;
30243;SDS011;64022;53.652;9.792;2023-04-01T09:39:35;15.65;;;5.78;;
30243;SDS011;64022;53.652;9.792;2023-04-01T09:52:35;10.88;;;4.80;;
30243;SDS011;64022;53.652;9.792;2023-04-01T09:55:21;11.82;;;4.88;;
30243;SDS011;64022;53.652;9.792;2023-04-01T09:58:19;12.82;;;4.93;;
30243;SDS011;64022;53.652;9.792;2023-04-01T10:01:02;12.68;;;4.97;;
30243;SDS011;64022;53.652;9.792;2023-04-01T10:07:16;12.55;;;5.03;;
30243;SDS011;64022;53.652;9.792;2023-04-01T10:10:02;12.25;;;5.22;;
30243;SDS011;64022;53.652;9.792;2023-04-01T10:18:36;6.82;;;2.72;;
30243;SDS011;64022;53.652;9.792;2023-04-01T10:24:30;7.47;;;3.40;;
30243;SDS011;64022;53.652;9.792;2023-04-01T10:32:30;9.05;;;3.08;;
30243;SDS011;64022;53.652;9.792;2023-04-01T10:38:19;8.02;;;3.00;;
30243;SDS011;64022;53.652;9.792;2023-04-01T10:53:03;6.55;;;2.92;;
30243;SDS011;64022;53.652;9.792;2023-04-01T11:02:08;8.68;;;3.17;;
30243;SDS011;64022;53.652;9.792;2023-04-01T11:04:58;10.35;;;3.17;;
30243;SDS011;64022;53.652;9.792;2023-04-01T11:08:04;8.80;;;3.80;;
30243;SDS011;64022;53.652;9.792;2023-04-01T11:26:04;14.32;;;4.45;;
30243;SDS011;64022;53.652;9.792;2023-04-01T11:34:19;9.18;;;3.60;;
30243;SDS011;64022;53.652;9.792;2023-04-01T11:42:41;9.30;;;4.35;;
30243;SDS011;64022;53.652;9.792;2023-04-01T11:48:18;5.10;;;3.22;;
30243;SDS011;64022;53.652;9.792;2023-04-01T11:51:04;6.88;;;3.47;;
30243;SDS011;64022;53.652;9.792;2023-04-01T11:53:47;6.43;;;3.45;;
30243;SDS011;64022;53.652;9.792;2023-04-01T11:56:41;8.98;;;3.58;;
30243;SDS011;64022;53.652;9.792;2023-04-01T12:02:19;4.97;;;3.30;;
30243;SDS011;64022;53.652;9.792;2023-04-01T12:05:11;5.57;;;3.53;;
30243;SDS011;64022;53.652;9.792;2023-04-01T12:08:09;7.77;;;3.70;;
30243;SDS011;64022;53.652;9.792;2023-04-01T12:11:04;9.00;;;4.22;;
30243;SDS011;64022;53.652;9.792;2023-04-01T12:13:57;6.65;;;4.05;;
30243;SDS011;64022;53.652;9.792;2023-04-01T12:16:37;7.05;;;4.20;;
30243;SDS011;64022;53.652;9.792;2023-04-01T12:22:12;10.05;;;3.78;;
30243;SDS011;64022;53.652;9.792;2023-04-01T12:25:27;8.32;;;4.00;;
30243;SDS011;64022;53.652;9.792;2023-04-01T12:36:19;9.02;;;4.13;;
30243;SDS011;64022;53.652;9.792;2023-04-01T12:44:23;7.25;;;4.60;;
30243;SDS011;64022;53.652;9.792;2023-04-01T12:49:28;10.83;;;5.10;;
30243;SDS011;64022;53.652;9.792;2023-04-01T12:52:10;8.75;;;4.05;;
30243;SDS011;64022;53.652;9.792;2023-04-01T13:11:09;7.32;;;4.10;;
30243;SDS011;64022;53.652;9.792;2023-04-01T13:13:39;10.10;;;4.68;;
30243;SDS011;64022;53.652;9.792;2023-04-01T13:19:21;8.25;;;4.78;;
30243;SDS011;64022;53.652;9.792;2023-04-01T13:22:20;7.18;;;4.32;;
30243;SDS011;64022;53.652;9.792;2023-04-01T13:25:24;7.80;;;4.70;;
30243;SDS011;64022;53.652;9.792;2023-04-01T13:28:14;7.70;;;4.50;;
30243;SDS011;64022;53.652;9.792;2023-04-01T13:38:57;8.65;;;4.53;;
30243;SDS011;64022;53.652;9.792;2023-04-01T13:41:40;10.43;;;4.50;;
30243;SDS011;64022;53.652;9.792;2023-04-01T13:44:14;7.18;;;4.43;;
30243;SDS011;64022;53.652;9.792;2023-04-01T13:47:07;8.65;;;4.25;;
30243;SDS011;64022;53.652;9.792;2023-04-01T13:49:55;6.97;;;4.32;;
30243;SDS011;64022;53.652;9.792;2023-04-01T14:05:56;6.25;;;4.22;;
30243;SDS011;64022;53.652;9.792;2023-04-01T14:11:45;6.80;;;4.22;;
30243;SDS011;64022;53.652;9.792;2023-04-01T14:14:53;5.85;;;4.20;;
30243;SDS011;64022;53.652;9.792;2023-04-01T14:20:13;8.23;;;4.07;;
30243;SDS011;64022;53.652;9.792;2023-04-01T14:25:48;6.20;;;3.97;;
30243;SDS011;64022;53.652;9.792;2023-04-01T14:31:43;5.90;;;3.88;;
30243;SDS011;64022;53.652;9.792;2023-04-01T14:37:40;6.55;;;4.32;;
30243;SDS011;64022;53.652;9.792;2023-04-01T14:40:28;9.77;;;4.20;;
30243;SDS011;64022;53.652;9.792;2023-04-01T14:49:04;6.30;;;4.15;;
30243;SDS011;64022;53.652;9.792;2023-04-01T14:51:38;5.15;;;4.00;;
30243;SDS011;64022;53.652;9.792;2023-04-01T14:56:38;5.13;;;3.70;;
30243;SDS011;64022;53.652;9.792;2023-04-01T15:02:02;6.82;;;4.00;;
30243;SDS011;64022;53.652;9.792;2023-04-01T15:15:57;6.15;;;3.92;;
30243;SDS011;64022;53.652;9.792;2023-04-01T15:21:18;6.60;;;3.70;;
30243;SDS011;64022;53.652;9.792;2023-04-01T15:23:46;7.70;;;3.88;;
30243;SDS011;64022;53.652;9.792;2023-04-01T15:26:39;5.47;;;3.53;;
30243;SDS011;64022;53.652;9.792;2023-04-01T15:32:44;6.00;;;4.15;;
30243;SDS011;64022;53.652;9.792;2023-04-01T15:35:10;6.22;;;3.72;;
30243;SDS011;64022;53.652;9.792;2023-04-01T15:38:22;5.03;;;3.33;;
30243;SDS011;64022;53.652;9.792;2023-04-01T15:43:45;4.65;;;3.35;;
30243;SDS011;64022;53.652;9.792;2023-04-01T15:52:19;6.20;;;3.47;;
30243;SDS011;64022;53.652;9.792;2023-04-01T16:00:22;5.50;;;3.50;;
30243;SDS011;64022;53.652;9.792;2023-04-01T16:05:53;4.70;;;3.33;;
30243;SDS011;64022;53.652;9.792;2023-04-01T16:13:59;5.00;;;3.67;;
30243;SDS011;64022;53.652;9.792;2023-04-01T16:19:40;6.97;;;3.60;;
30243;SDS011;64022;53.652;9.792;2023-04-01T16:33:44;5.57;;;3.60;;
30243;SDS011;64022;53.652;9.792;2023-04-01T16:36:20;4.72;;;3.50;;
30243;SDS011;64022;53.652;9.792;2023-04-01T16:47:46;4.60;;;3.22;;
30243;SDS011;64022;53.652;9.792;2023-04-01T16:52:54;4.35;;;3.47;;
30243;SDS011;64022;53.652;9.792;2023-04-01T16:55:43;6.10;;;3.85;;
30243;SDS011;64022;53.652;9.792;2023-04-01T16:58:21;6.70;;;3.17;;
30243;SDS011;64022;53.652;9.792;2023-04-01T17:01:01;5.65;;;3.15;;
30243;SDS011;64022;53.652;9.792;2023-04-01T17:03:51;4.18;;;2.97;;
30243;SDS011;64022;53.652;9.792;2023-04-01T17:11:31;4.63;;;3.08;;
30243;SDS011;64022;53.652;9.792;2023-04-01T17:14:23;5.18;;;3.40;;
30243;SDS011;64022;53.652;9.792;2023-04-01T17:17:12;6.30;;;3.42;;
30243;SDS011;64022;53.652;9.792;2023-04-01T17:22:32;4.30;;;2.92;;
30243;SDS011;64022;53.652;9.792;2023-04-01T17:28:05;4.38;;;3.00;;
30243;SDS011;64022;53.652;9.792;2023-04-01T17:30:47;3.53;;;2.88;;
30243;SDS011;64022;53.652;9.792;2023-04-01T17:44:08;4.63;;;3.20;;
30243;SDS011;64022;53.652;9.792;2023-04-01T17:52:42;4.70;;;3.15;;
30243;SDS011;64022;53.652;9.792;2023-04-01T17:55:34;5.75;;;2.88;;
30243;SDS011;64022;53.652;9.792;2023-04-01T17:58:28;4.30;;;3.03;;
30243;SDS011;64022;53.652;9.792;2023-04-01T18:06:33;4.18;;;2.80;;
30243;SDS011;64022;53.652;9.792;2023-04-01T18:12:48;4.68;;;3.05;;
30243;SDS011;64022;53.652;9.792;2023-04-01T18:15:21;7.18;;;3.97;;
30243;SDS011;64022;53.652;9.792;2023-04-01T18:18:08;5.35;;;3.25;;
30243;SDS011;64022;53.652;9.792;2023-04-01T18:26:19;5.88;;;3.17;;
30243;SDS011;64022;53.652;9.792;2023-04-01T18:32:01;4.00;;;2.90;;
30243;SDS011;64022;53.652;9.792;2023-04-01T18:35:12;3.97;;;2.75;;
30243;SDS011;64022;53.652;9.792;2023-04-01T18:37:53;5.45;;;3.13;;
30243;SDS011;64022;53.652;9.792;2023-04-01T18:40:30;3.35;;;2.58;;
30243;SDS011;64022;53.652;9.792;2023-04-01T18:43:16;3.47;;;2.60;;
30243;SDS011;64022;53.652;9.792;2023-04-01T18:51:58;4.28;;;3.05;;
30243;SDS011;64022;53.652;9.792;2023-04-01T18:54:33;4.47;;;2.90;;
30243;SDS011;64022;53.652;9.792;2023-04-01T18:57:25;3.83;;;2.65;;
30243;SDS011;64022;53.652;9.792;2023-04-01T19:00:04;4.22;;;3.10;;
30243;SDS011;64022;53.652;9.792;2023-04-01T19:03:01;3.78;;;2.85;;
30243;SDS011;64022;53.652;9.792;2023-04-01T19:05:53;4.10;;;2.83;;
30243;SDS011;64022;53.652;9.792;2023-04-01T19:10:58;4.75;;;2.83;;
30243;SDS011;64022;53.652;9.792;2023-04-01T19:13:52;4.72;;;3.13;;
30243;SDS011;64022;53.652;9.792;2023-04-01T19:19:28;4.18;;;2.88;;
30243;SDS011;64022;53.652;9.792;2023-04-01T19:25:17;3.78;;;2.60;;
30243;SDS011;64022;53.652;9.792;2023-04-01T19:30:57;4.72;;;2.88;;
30243;SDS011;64022;53.652;9.792;2023-04-01T19:36:14;5.20;;;3.20;;
30243;SDS011;64022;53.652;9.792;2023-04-01T19:39:05;4.30;;;3.00;;
30243;SDS011;64022;53.652;9.792;2023-04-01T19:41:45;3.22;;;2.78;;
30243;SDS011;64022;53.652;9.792;2023-04-01T19:47:02;4.45;;;3.03;;
30243;SDS011;64022;53.652;9.792;2023-04-01T19:49:45;4.10;;;3.20;;
30243;SDS011;64022;53.652;9.792;2023-04-01T19:52:30;4.85;;;3.53;;
30243;SDS011;64022;53.652;9.792;2023-04-01T20:00:37;4.88;;;3.30;;
30243;SDS011;64022;53.652;9.792;2023-04-01T20:06:35;3.78;;;2.53;;
30243;SDS011;64022;53.652;9.792;2023-04-01T20:14:49;4.38;;;3.08;;
30243;SDS011;64022;53.652;9.792;2023-04-01T20:17:21;7.18;;;2.80;;
30243;SDS011;64022;53.652;9.792;2023-04-01T20:27:45;4.85;;;3.10;;
30243;SDS011;64022;53.652;9.792;2023-04-01T20:47:48;6.25;;;3.70;;
30243;SDS011;64022;53.652;9.792;2023-04-01T20:53:12;5.18;;;3.25;;
30243;SDS011;64022;53.652;9.792;2023-04-01T20:58:28;5.03;;;3.38;;
30243;SDS011;64022;53.652;9.792;2023-04-01T21:01:05;4.97;;;3.30;;
30243;SDS011;64022;53.652;9.792;2023-04-01T21:14:45;5.13;;;2.92;;
30243;SDS011;64022;53.652;9.792;2023-04-01T21:25:54;3.53;;;3.03;;
30243;SDS011;64022;53.652;9.792;2023-04-01T21:28:43;4.00;;;2.95;;
30243;SDS011;64022;53.652;9.792;2023-04-01T21:37:17;4.22;;;3.30;;
30243;SDS011;64022;53.652;9.792;2023-04-01T21:42:45;4.72;;;2.65;;
30243;SDS011;64022;53.652;9.792;2023-04-01T21:45:30;4.22;;;2.83;;
30243;SDS011;64022;53.652;9.792;2023-04-01T21:53:37;5.35;;;3.20;;
30243;SDS011;64022;53.652;9.792;2023-04-01T21:59:16;6.40;;;3.30;;
30243;SDS011;64022;53.652;9.792;2023-04-01T22:02:10;5.97;;;3.30;;
30243;SDS011;64022;53.652;9.792;2023-04-01T22:07:38;5.45;;;2.78;;
30243;SDS011;64022;53.652;9.792;2023-04-01T22:10:29;5.63;;;3.28;;
30243;SDS011;64022;53.652;9.792;2023-04-01T22:18:57;5.47;;;3.03;;
30243;SDS011;64022;53.652;9.792;2023-04-01T22:21:45;3.33;;;2.88;;
30243;SDS011;64022;53.652;9.792;2023-04-01T22:32:42;4.10;;;2.80;;
30243;SDS011;64022;53.652;9.792;2023-04-01T22:40:34;4.07;;;2.70;;
30243;SDS011;64022;53.652;9.792;2023-04-01T22:43:33;5.75;;;3.03;;
30243;SDS011;64022;53.652;9.792;2023-04-01T22:46:06;4.65;;;3.10;;
30243;SDS011;64022;53.652;9.792;2023-04-01T22:48:43;3.40;;;2.85;;
30243;SDS011;64022;53.652;9.792;2023-04-01T22:54:13;5.15;;;2.78;;
30243;SDS011;64022;53.652;9.792;2023-04-01T22:56:51;4.57;;;3.20;;
30243;SDS011;64022;53.652;9.792;2023-04-01T22:59:47;3.67;;;2.55;;
30243;SDS011;64022;53.652;9.792;2023-04-01T23:02:18;3.60;;;2.30;;
30243;SDS011;64022;53.652;9.792;2023-04-01T23:04:57;3.60;;;2.55;;
30243;SDS011;64022;53.652;9.792;2023-04-01T23:10:28;4.78;;;2.95;;
30243;SDS011;64022;53.652;9.792;2023-04-01T23:13:06;6.38;;;2.90;;
30243;SDS011;64022;53.652;9.792;2023-04-01T23:15:38;4.88;;;3.10;;
30243;SDS011;64022;53.652;9.792;2023-04-01T23:23:43;3.13;;;2.45;;
30243;SDS011;64022;53.652;9.792;2023-04-01T23:26:25;4.07;;;2.75;;
30243;SDS011;64022;53.652;9.792;2023-04-01T23:29:08;4.22;;;2.38;;
30243;SDS011;64022;53.652;9.792;2023-04-01T23:31:39;4.07;;;2.90;;
30243;SDS011;64022;53.652;9.792;2023-04-01T23:36:40;4.00;;;2.50;;
30243;SDS011;64022;53.652;9.792;2023-04-01T23:41:52;3.45;;;2.97;;
30243;SDS011;64022;53.652;9.792;2023-04-01T23:44:21;4.13;;;2.35;;
30243;SDS011;64022;53.652;9.792;2023-04-01T23:46:50;3.70;;;3.00;;
30243;SDS011;64022;53.652;9.792;2023-04-01T23:49:18;4.43;;;2.70;;
30243;SDS011;64022;53.652;9.792;2023-04-01T23:51:51;4.22;;;2.40;;
30243;SDS011;64022;53.652;9.792;2023-04-01T23:54:24;3.35;;;2.42;;
30243;SDS011;64022;53.652;9.792;2023-04-01T23:57:10;4.50;;;2.78;;
30243;SDS011;64022;53.652;9.792;2023-04-01T23:59:38;3.83;;;2.60;;
